PWSweather.com
Personal Weather Stations
Station Observations
RHPWSHOR1
Lostock, BoltonGB

LostockBoltonGB

Lat: 53.58073044, Lon: -2.52344131

Elevation: 389

Station Type: Oregon Scientific WMR100

Latest ConditionsUpdated 7:20:15 PM GMT Saturday, Dec 20, 2014
Currently Today's Max Today's Min Today's Average
Temperature 45.1°F7.3°C 45.7°F7.6°C 45.1°F7.3°C 45.4°F7.4°C
Dew Point 40.0°F4.4°C 40.2°F4.6°C 36.5°F2.5°C 39.1°F3.9°C
Winds Calm Calm 5.4 mph SSE8.7 kmh SSE - 3.2 mph 5.1 kmh
Wind Gusts -- 6.3 mph10.1 kmh - -
Humidity 82% 82% 71% 78%
Pressure 29.79 in1008.8 mb 29.79 in1008.8 mb 29.74 in1007.1 mb -
Hour Temp Dew Point Humidity Winds Wind Gusts Pressure Precip Precip Rate Daily Precip Total
07:20 PM 45.1°F7.3°C 40.0°F4.4°C 82% Calm Calm -- 29.79 in1008.8 mb 0.00 in0.0 mm 0.00 in/hr0.0 mm/hr 0.00 in0.0 mm
07:13 PM 45.1°F7.3°C 40.0°F4.4°C 82% 2.5 mph SSW4.0 kmh SSW 2.5 mph4.0 kmh 29.79 in1008.8 mb 0.00 in0.0 mm 0.00 in/hr0.0 mm/hr 0.00 in0.0 mm
07:06 PM 45.1°F7.3°C 40.0°F4.4°C 82% 3.1 mph S5.0 kmh S 3.1 mph5.0 kmh 29.79 in1008.8 mb 0.00 in0.0 mm 0.00 in/hr0.0 mm/hr 0.00 in0.0 mm
06:59 PM 45.1°F7.3°C 40.0°F4.4°C 82% 2.7 mph WSW4.3 kmh WSW 2.7 mph4.3 kmh 29.79 in1008.8 mb 0.00 in0.0 mm 0.00 in/hr0.0 mm/hr 0.00 in0.0 mm
06:52 PM 45.1°F7.3°C 40.0°F4.4°C 82% 4.3 mph ESE6.9 kmh ESE 4.3 mph6.9 kmh 29.76 in1007.8 mb 0.00 in0.0 mm 0.00 in/hr0.0 mm/hr 0.00 in0.0 mm
06:45 PM 45.3°F7.4°C 40.2°F4.6°C 82% 3.8 mph WNW6.1 kmh WNW 3.8 mph6.1 kmh 29.76 in1007.8 mb 0.00 in0.0 mm 0.00 in/hr0.0 mm/hr 0.00 in0.0 mm
06:38 PM 45.3°F7.4°C 39.8°F4.3°C 81% 3.8 mph 6.1 kmh 3.8 mph6.1 kmh 29.76 in1007.8 mb 0.00 in0.0 mm 0.00 in/hr0.0 mm/hr 0.00 in0.0 mm
06:31 PM 45.3°F7.4°C 39.5°F4.2°C 80% 3.6 mph SW5.8 kmh SW 3.6 mph5.8 kmh 29.76 in1007.8 mb 0.00 in0.0 mm 0.00 in/hr0.0 mm/hr 0.00 in0.0 mm
06:24 PM 45.5°F7.5°C 39.4°F4.1°C 79% 2.9 mph SSW4.7 kmh SSW 2.9 mph4.7 kmh 29.76 in1007.8 mb 0.00 in0.0 mm 0.00 in/hr0.0 mm/hr 0.00 in0.0 mm
06:17 PM 45.5°F7.5°C 39.4°F4.1°C 79% 2.9 mph SSW4.7 kmh SSW 2.9 mph4.7 kmh 29.76 in1007.8 mb 0.00 in0.0 mm 0.00 in/hr0.0 mm/hr 0.00 in0.0 mm
06:10 PM 45.7°F7.6°C 39.6°F4.2°C 79% 4.3 mph WSW6.9 kmh WSW 4.3 mph6.9 kmh 29.76 in1007.8 mb 0.00 in0.0 mm 0.00 in/hr0.0 mm/hr 0.00 in0.0 mm
06:03 PM 45.7°F7.6°C 39.6°F4.2°C 79% 3.1 mph WNW5.0 kmh WNW 3.1 mph5.0 kmh 29.74 in1007.1 mb 0.00 in0.0 mm 0.00 in/hr0.0 mm/hr 0.00 in0.0 mm
05:56 PM 45.5°F7.5°C 39.1°F3.9°C 78% 3.6 mph W5.8 kmh W 3.6 mph5.8 kmh 29.74 in1007.1 mb 0.00 in0.0 mm 0.00 in/hr0.0 mm/hr 0.00 in0.0 mm
05:48 PM 45.5°F7.5°C 39.1°F3.9°C 78% 2.7 mph WNW4.3 kmh WNW 2.7 mph4.3 kmh 29.74 in1007.1 mb 0.00 in0.0 mm 0.00 in/hr0.0 mm/hr 0.00 in0.0 mm
05:42 PM 45.5°F7.5°C 39.1°F3.9°C 78% 2.7 mph WNW4.3 kmh WNW 2.7 mph4.3 kmh 29.74 in1007.1 mb 0.00 in0.0 mm 0.00 in/hr0.0 mm/hr 0.00 in0.0 mm
05:35 PM 45.7°F7.6°C 39.2°F4.0°C 78% 4.0 mph WNW6.4 kmh WNW 4.0 mph6.4 kmh 29.74 in1007.1 mb 0.00 in0.0 mm 0.00 in/hr0.0 mm/hr 0.00 in0.0 mm
05:27 PM 45.7°F7.6°C 39.2°F4.0°C 78% 5.4 mph SSE8.7 kmh SSE 6.3 mph10.1 kmh 29.74 in1007.1 mb 0.00 in0.0 mm 0.00 in/hr0.0 mm/hr 0.00 in0.0 mm
05:21 PM 45.7°F7.6°C 38.9°F3.8°C 77% 2.5 mph WSW4.0 kmh WSW 3.6 mph5.8 kmh 29.76 in1007.8 mb 0.00 in0.0 mm 0.00 in/hr0.0 mm/hr 0.00 in0.0 mm
05:14 PM 45.5°F7.5°C 38.7°F3.7°C 77% 1.6 mph NNW2.6 kmh NNW 3.6 mph5.8 kmh 29.76 in1007.8 mb 0.00 in0.0 mm 0.00 in/hr0.0 mm/hr 0.00 in0.0 mm
05:07 PM 45.5°F7.5°C 38.7°F3.7°C 77% 3.8 mph WSW6.1 kmh WSW 6.3 mph10.1 kmh 29.74 in1007.1 mb 0.00 in0.0 mm 0.00 in/hr0.0 mm/hr 0.00 in0.0 mm
05:00 PM 45.5°F7.5°C 38.4°F3.6°C 76% 1.6 mph SSE2.6 kmh SSE 1.6 mph2.6 kmh 29.74 in1007.1 mb 0.00 in0.0 mm 0.00 in/hr0.0 mm/hr 0.00 in0.0 mm
04:53 PM 45.5°F7.5°C 38.4°F3.6°C 76% 4.9 mph SSW7.9 kmh SSW 4.9 mph7.9 kmh 29.74 in1007.1 mb 0.00 in0.0 mm 0.00 in/hr0.0 mm/hr 0.00 in0.0 mm
04:46 PM 45.5°F7.5°C 38.4°F3.6°C 76% 2.9 mph WSW4.7 kmh WSW 2.9 mph4.7 kmh 29.74 in1007.1 mb 0.00 in0.0 mm 0.00 in/hr0.0 mm/hr 0.00 in0.0 mm
04:39 PM 45.5°F7.5°C 38.1°F3.4°C 75% 2.2 mph S3.5 kmh S 4.9 mph7.9 kmh 29.74 in1007.1 mb 0.00 in0.0 mm 0.00 in/hr0.0 mm/hr 0.00 in0.0 mm
04:31 PM 45.3°F7.4°C 37.2°F2.9°C 73% 2.7 mph SE4.3 kmh SE 2.7 mph4.3 kmh 29.74 in1007.1 mb 0.00 in0.0 mm 0.00 in/hr0.0 mm/hr 0.00 in0.0 mm
04:25 PM 45.3°F7.4°C 36.5°F2.5°C 71% 4.9 mph WSW7.9 kmh WSW 4.9 mph7.9 kmh 29.74 in1007.1 mb 0.00 in0.0 mm 0.00 in/hr0.0 mm/hr 0.00 in0.0 mm